Share

Vilnius, Lietuva

08:04 AM EEST on balandžio 24, 2014 (GMT +0300)
Vilnius International (EYVI) Elev 643 ft | 54.63 °N, 25.29 °E | Change Station

Current weather conditions updated 14 minutes ago

Clear
Geras oras
41 °F
Feels Like 36 °F
N
8
Vėjas nepastovus Vėjas from Rytų - šiaurės rytų
Saulė kyla 5:56 AM
Saulėlydis 8:39 PM
Mėnulis Dylantis mėnulis

Today is forecast to be Much Cooler than yesterday.

Slėgis 30.33 in
Matomumas -9999.0 mylios
Debesys
Šaltas vėjas 36 °F
Rasos taškas 19 °F
Drėgmė 42%
Krituliai 0.00 in
Sniego dangos storis Not available.
UV Not available.
Pollen Not available.
Air Quality Not available.
Flu Activity Not available.
METAR EYVI 240450Z 07007KT 050V110 CAVOK 05/M07 Q1027 NOSIG

More Conditions Fewer Conditions

Slėgis 30.33 in
Matomumas -9999.0 mylios
Debesys
Šaltas vėjas 36 °F
Rasos taškas 19 °F
Drėgmė 42%
Krituliai 0.00 in
Sniego dangos storis Not available.
UV Not available.
Pollen Not available.
Air Quality Not available.
Flu Activity Not available.
METAR EYVI 240450Z 07007KT 050V110 CAVOK 05/M07 Q1027 NOSIG

More Conditions Fewer Conditions

10-Day Weather Forecast

Almanac

Astronomija

Apr. 24, 2014 Rise Set
Vietos laikas 5:56 AM EEST 8:39 PM EEST
Dienos šviesa 5:15 AM EEST 9:19 PM EEST
Jūrinė diena 4:23 AM EEST 10:12 PM EEST
Astronominė diena 3:16 AM EEST 11:20 PM EEST
Mėnulis 3:47 AM EEST 2:44 PM EEST
Matomos šviesos trukmė 16h 04m
Dienos ilgis
14h 43m
Tomorrow will be 4m 11s longer.
Dylantis mėnulis, 29% of the Moon is Illuminated
Šiandien
Dylantis mėnulis
Apr 29
New
May 6
Priešpilnis
May 14
Pilnatis
May 21
Delčia

Yesterday's Extremes

Country Highs Country Lows

Community

  • Stacked
    Stacked
  • clouds approaching Red Sox Nation
    clouds approaching Red Sox Nation
  • Balance
    Balance
  • Nestled In
    Nestled In
  • Stunning Sunrise
    Stunning Sunrise

WunderPhotos

Upload Photos

1,704,563 photos uploaded!

WunderBlogs® & News

Nearby

Sniego danga

Not available.

Coastal Water Temperatures

Vieta Temperatūra
No Stations Reporting

Earthquake Activity

Miestas Distance Mag. Time & Date
No recent earthquake activity has been reported nearby.
Minimum magnitude displayed is 2.5.

Nearby Weather Stations

Station Location Temp Šaltas vėjas Rasos taškas Drėgmė Vėjas Precip. Elev Duomenys papildyti Type
Virsuliskes, Vilnius 46.2 °F 40 °F 25 °F 43% Vakarų  at  15.2 mph 0.00 in / hr 584 ft 7:59 AM EEST Normal

Show More Stations Show Fewer Stations

What do you think?

We're not finished. Please let us know what you like, what you don't like, and what you are still missing.